createdAt,value
2024-05-09T00:02:05.655Z,7.82
2024-05-09T00:04:51.449Z,7.69
2024-05-09T00:07:36.972Z,7.91
2024-05-09T00:10:29.092Z,7.96
2024-05-09T00:13:21.030Z,7.68
2024-05-09T00:16:07.222Z,7.56
2024-05-09T00:18:53.322Z,7.69
2024-05-09T00:21:43.149Z,7.72
2024-05-09T00:24:28.616Z,7.69
2024-05-09T00:27:14.360Z,7.83
2024-05-09T00:30:00.122Z,7.92
2024-05-09T00:32:45.887Z,7.91
2024-05-09T00:35:31.496Z,7.81
2024-05-09T00:38:17.082Z,7.54
2024-05-09T00:41:02.973Z,7.37
2024-05-09T00:43:48.532Z,7.35
2024-05-09T00:46:34.619Z,7.21
2024-05-09T00:49:22.056Z,7.24
2024-05-09T00:52:09.478Z,7.11
2024-05-09T00:54:58.167Z,7.32
2024-05-09T00:57:44.788Z,7.46
2024-05-09T01:00:35.890Z,7.47
2024-05-09T01:03:25.615Z,7.21
2024-05-09T01:06:11.777Z,7.29
2024-05-09T01:08:57.506Z,7.45
2024-05-09T01:11:42.576Z,7.52
2024-05-09T01:14:28.250Z,7.60
2024-05-09T01:17:14.297Z,7.60
2024-05-09T01:19:59.608Z,7.24
2024-05-09T01:22:45.630Z,7.19
2024-05-09T01:25:32.918Z,7.31
2024-05-09T01:28:18.819Z,7.16
2024-05-09T01:31:04.446Z,7.14
2024-05-09T01:33:49.965Z,7.23
2024-05-09T01:36:35.263Z,7.32
2024-05-09T01:39:20.753Z,7.03
2024-05-09T01:42:06.250Z,6.93
2024-05-09T01:44:52.027Z,7.06
2024-05-09T01:47:37.771Z,6.94
2024-05-09T01:50:35.722Z,7.11
2024-05-09T01:53:24.745Z,7.18
2024-05-09T01:56:10.448Z,6.97
2024-05-09T01:58:55.864Z,6.72
2024-05-09T02:01:56.210Z,6.75
2024-05-09T02:04:46.663Z,6.58
2024-05-09T02:07:32.433Z,6.55
2024-05-09T02:10:23.525Z,6.51
2024-05-09T02:13:16.572Z,6.64
2024-05-09T02:16:01.905Z,6.39
2024-05-09T02:18:47.659Z,6.66
2024-05-09T02:21:34.344Z,6.77
2024-05-09T02:24:19.948Z,6.57
2024-05-09T02:27:05.438Z,6.42
2024-05-09T02:29:50.654Z,6.33
2024-05-09T02:32:35.838Z,6.26
2024-05-09T02:35:21.594Z,6.18
2024-05-09T02:38:09.258Z,6.31
2024-05-09T02:40:54.836Z,6.40
2024-05-09T02:43:40.355Z,6.26
2024-05-09T02:46:25.807Z,6.33
2024-05-09T02:49:11.887Z,6.47
2024-05-09T02:51:57.424Z,6.58
2024-05-09T02:54:43.203Z,6.65
2024-05-09T02:57:28.881Z,6.71
2024-05-09T03:00:19.101Z,6.47
2024-05-09T03:03:13.786Z,6.18
2024-05-09T03:06:02.402Z,6.12
2024-05-09T03:08:48.029Z,6.01
2024-05-09T03:11:33.559Z,6.25
2024-05-09T03:14:19.563Z,6.35
2024-05-09T03:17:05.586Z,6.21
2024-05-09T03:19:51.249Z,6.02
2024-05-09T03:22:36.763Z,5.98
2024-05-09T03:25:22.170Z,6.07
2024-05-09T03:28:07.663Z,6.20
2024-05-09T03:30:52.849Z,6.31
2024-05-09T03:33:38.465Z,6.24
2024-05-09T03:36:24.055Z,6.13
2024-05-09T03:39:12.543Z,6.00
2024-05-09T03:41:57.954Z,6.02
2024-05-09T03:44:43.539Z,6.01
2024-05-09T03:47:28.874Z,6.06
2024-05-09T03:50:22.005Z,6.03
2024-05-09T03:53:13.121Z,6.04
2024-05-09T03:55:58.892Z,6.13
2024-05-09T03:58:44.509Z,6.12
2024-05-09T04:01:30.399Z,6.25
2024-05-09T04:04:16.061Z,6.26
2024-05-09T04:07:01.483Z,6.40
2024-05-09T04:09:47.150Z,6.47
2024-05-09T04:12:32.216Z,6.82
2024-05-09T04:15:17.910Z,6.94
2024-05-09T04:18:03.456Z,6.81
2024-05-09T04:20:49.371Z,6.77
2024-05-09T04:23:34.943Z,6.82
2024-05-09T04:26:20.312Z,7.06
2024-05-09T04:29:05.976Z,7.26
2024-05-09T04:31:51.681Z,7.55
2024-05-09T04:34:37.527Z,7.84
2024-05-09T04:37:22.920Z,8.01
2024-05-09T04:40:14.191Z,8.06
2024-05-09T04:43:07.001Z,8.31
2024-05-09T04:45:53.659Z,8.51
2024-05-09T04:48:38.820Z,8.82
2024-05-09T04:51:24.435Z,9.10
2024-05-09T04:54:15.681Z,9.15
2024-05-09T04:57:07.330Z,9.38
2024-05-09T04:59:52.875Z,9.59
2024-05-09T05:02:38.570Z,9.72
2024-05-09T05:05:23.993Z,9.84
2024-05-09T05:08:13.973Z,9.87
2024-05-09T05:11:00.024Z,10.11
2024-05-09T05:13:45.794Z,10.14
2024-05-09T05:16:31.530Z,10.32
2024-05-09T05:19:17.793Z,10.35
2024-05-09T05:22:03.180Z,10.52
2024-05-09T05:24:48.724Z,10.81
2024-05-09T05:27:33.994Z,10.49
2024-05-09T05:30:24.982Z,10.38
2024-05-09T05:33:16.160Z,10.64
2024-05-09T05:36:01.922Z,11.30
2024-05-09T05:38:47.490Z,11.34
2024-05-09T05:41:33.089Z,11.15
2024-05-09T05:44:18.642Z,11.46
2024-05-09T05:47:04.312Z,11.66
2024-05-09T05:49:49.614Z,11.73
2024-05-09T05:52:35.176Z,11.85
2024-05-09T05:55:20.808Z,12.31
2024-05-09T05:58:10.261Z,12.22
2024-05-09T06:00:56.145Z,12.36
2024-05-09T06:03:41.776Z,11.66
2024-05-09T06:06:27.193Z,11.27
2024-05-09T06:09:12.850Z,11.34
2024-05-09T06:11:58.265Z,11.40
2024-05-09T06:14:44.340Z,11.27
2024-05-09T06:17:29.739Z,11.28
2024-05-09T06:20:20.721Z,11.14
2024-05-09T06:23:14.160Z,11.23
2024-05-09T06:26:00.085Z,11.88
2024-05-09T06:28:45.452Z,12.59
2024-05-09T06:31:31.011Z,12.81
2024-05-09T06:34:18.790Z,12.74
2024-05-09T06:37:04.526Z,13.34
2024-05-09T06:39:49.939Z,13.46
2024-05-09T06:42:35.486Z,14.05
2024-05-09T06:45:21.179Z,14.23
2024-05-09T06:48:07.681Z,15.27
2024-05-09T06:50:53.371Z,15.77
2024-05-09T06:53:39.986Z,15.46
2024-05-09T06:56:25.263Z,15.11
2024-05-09T06:59:10.911Z,15.52
2024-05-09T07:01:56.431Z,16.31
2024-05-09T07:04:42.320Z,15.49
2024-05-09T07:07:27.924Z,15.83
2024-05-09T07:10:21.667Z,16.45
2024-05-09T07:13:12.211Z,17.31
2024-05-09T07:15:58.053Z,16.64
2024-05-09T07:18:43.970Z,16.64
2024-05-09T07:21:29.449Z,16.21
2024-05-09T07:24:14.854Z,15.75
2024-05-09T07:27:00.584Z,14.36
2024-05-09T07:29:45.825Z,15.21
2024-05-09T07:32:31.346Z,14.62
2024-05-09T07:35:16.893Z,14.30
2024-05-09T07:38:02.621Z,15.06
2024-05-09T07:40:48.670Z,14.43
2024-05-09T07:43:34.105Z,14.86
2024-05-09T07:47:14.496Z,15.70
2024-05-09T07:53:29.721Z,15.97
2024-05-09T07:55:19.431Z,16.37
2024-05-09T07:58:04.993Z,15.84
2024-05-09T08:00:50.347Z,15.55
2024-05-09T08:03:36.122Z,15.66
2024-05-09T08:06:23.649Z,15.32
2024-05-09T08:09:13.882Z,15.82
2024-05-09T08:12:04.890Z,16.13
2024-05-09T08:14:50.515Z,16.20
2024-05-09T08:17:35.987Z,16.61
2024-05-09T08:20:30.153Z,16.27
2024-05-09T08:23:17.766Z,16.72
2024-05-09T08:26:03.344Z,16.46
2024-05-09T08:28:49.077Z,16.66
2024-05-09T08:31:38.584Z,16.96
2024-05-09T08:34:23.783Z,17.36
2024-05-09T08:37:15.491Z,17.13
2024-05-09T08:40:08.544Z,16.44
2024-05-09T08:42:57.756Z,16.95
2024-05-09T08:45:44.960Z,16.37
2024-05-09T08:48:34.434Z,16.87
2024-05-09T08:51:20.279Z,17.93
2024-05-09T08:54:05.727Z,17.60
2024-05-09T08:56:51.593Z,18.00
2024-05-09T08:59:44.728Z,17.35
2024-05-09T09:02:31.740Z,17.81
2024-05-09T09:05:17.979Z,16.98
2024-05-09T09:08:07.560Z,16.88
2024-05-09T09:10:57.593Z,16.68
2024-05-09T09:13:43.387Z,17.09
2024-05-09T09:16:35.727Z,17.34
2024-05-09T09:19:23.571Z,17.05
2024-05-09T09:22:09.374Z,16.99
2024-05-09T09:24:55.347Z,17.19
2024-05-09T09:27:41.251Z,17.87
2024-05-09T09:30:35.140Z,17.89
2024-05-09T09:33:23.301Z,18.27
2024-05-09T09:36:11.202Z,17.64
2024-05-09T09:38:57.783Z,17.83
2024-05-09T09:41:47.246Z,18.20
2024-05-09T09:44:34.218Z,17.97
2024-05-09T09:47:20.649Z,18.64
2024-05-09T09:50:14.142Z,18.61
2024-05-09T09:53:05.017Z,18.47
2024-05-09T09:55:52.133Z,17.88
2024-05-09T09:58:40.122Z,18.61
2024-05-09T10:01:25.598Z,18.34
2024-05-09T10:04:12.938Z,18.19
2024-05-09T10:07:01.410Z,19.03
2024-05-09T10:09:47.263Z,19.01
2024-05-09T10:12:32.657Z,19.22
2024-05-09T10:15:19.951Z,17.95
2024-05-09T10:18:08.473Z,18.30
2024-05-09T10:20:54.601Z,18.06
2024-05-09T10:23:39.842Z,18.62
2024-05-09T10:26:32.191Z,19.40
2024-05-09T10:29:19.281Z,19.00
2024-05-09T10:32:04.833Z,19.45
2024-05-09T10:35:21.313Z,19.70
2024-05-09T10:38:07.470Z,19.69
2024-05-09T10:40:56.680Z,19.64
2024-05-09T10:43:42.102Z,19.47
2024-05-09T10:46:27.423Z,19.72
2024-05-09T10:49:16.917Z,18.56
2024-05-09T10:52:04.291Z,18.82
2024-05-09T10:54:54.194Z,19.00
2024-05-09T10:57:43.389Z,18.75
2024-05-09T11:00:36.017Z,18.44
2024-05-09T11:03:26.167Z,18.92
2024-05-09T11:06:11.639Z,18.94
2024-05-09T11:08:57.743Z,18.85
2024-05-09T11:11:43.283Z,18.47
2024-05-09T11:14:28.613Z,18.14
2024-05-09T11:17:14.254Z,18.36
2024-05-09T11:20:00.416Z,18.42
2024-05-09T11:22:45.759Z,19.00
2024-05-09T11:25:33.169Z,18.78
2024-05-09T11:28:19.346Z,19.27
2024-05-09T11:31:10.412Z,19.51
2024-05-09T11:33:56.456Z,19.52
2024-05-09T11:36:41.992Z,18.62
2024-05-09T11:39:27.758Z,18.89
2024-05-09T11:42:14.309Z,19.42
2024-05-09T11:45:00.456Z,19.31
2024-05-09T11:47:46.547Z,20.07
2024-05-09T11:50:35.578Z,19.50
2024-05-09T11:53:21.488Z,19.92
2024-05-09T11:56:07.381Z,20.00
2024-05-09T11:58:53.342Z,20.05
2024-05-09T12:01:39.022Z,19.74
2024-05-09T12:04:24.462Z,19.57
2024-05-09T12:07:12.662Z,19.40
2024-05-09T12:09:58.352Z,19.72
2024-05-09T12:12:44.023Z,19.44
2024-05-09T12:15:29.633Z,19.52
2024-05-09T12:18:15.356Z,19.50
2024-05-09T12:21:01.523Z,19.31
2024-05-09T12:23:47.272Z,19.12
2024-05-09T12:26:32.810Z,19.42
2024-05-09T12:29:18.185Z,19.60
2024-05-09T12:32:03.846Z,19.65
2024-05-09T12:34:49.247Z,19.77
2024-05-09T12:37:34.443Z,19.44
2024-05-09T12:40:26.850Z,19.98
2024-05-09T12:43:19.842Z,20.01
2024-05-09T12:46:05.579Z,20.16
2024-05-09T12:48:51.864Z,20.19
2024-05-09T12:51:38.290Z,20.25
2024-05-09T12:54:23.705Z,20.19
2024-05-09T12:57:09.652Z,20.11
2024-05-09T12:59:55.719Z,20.04
2024-05-09T13:02:41.433Z,19.76
2024-05-09T13:05:27.331Z,20.03
2024-05-09T13:08:13.860Z,19.79
2024-05-09T13:10:59.442Z,19.55
2024-05-09T13:13:44.961Z,19.24
2024-05-09T13:16:30.803Z,19.27
2024-05-09T13:19:16.644Z,20.00
2024-05-09T13:22:02.541Z,20.23
2024-05-09T13:24:48.051Z,19.95
2024-05-09T13:27:33.894Z,20.10
2024-05-09T13:30:28.700Z,20.25
2024-05-09T13:33:20.813Z,19.96
2024-05-09T13:36:06.733Z,20.09
2024-05-09T13:38:52.240Z,19.99
2024-05-09T13:41:37.607Z,19.58
2024-05-09T13:44:22.894Z,19.21
2024-05-09T13:47:09.043Z,19.55
2024-05-09T13:49:54.866Z,19.59
2024-05-09T13:52:40.249Z,19.52
2024-05-09T13:55:25.657Z,19.75
2024-05-09T13:58:11.282Z,19.89
2024-05-09T14:00:56.546Z,19.64
2024-05-09T14:03:42.429Z,19.63
2024-05-09T14:06:28.058Z,19.69
2024-05-09T14:09:13.576Z,20.12
2024-05-09T14:11:59.303Z,20.08
2024-05-09T14:14:44.843Z,20.25
2024-05-09T14:17:30.805Z,19.99
2024-05-09T14:20:23.872Z,20.41
2024-05-09T14:23:17.814Z,20.41
2024-05-09T14:26:03.281Z,20.56
2024-05-09T14:28:48.834Z,19.98
2024-05-09T14:31:36.896Z,19.65
2024-05-09T14:34:24.077Z,19.38
2024-05-09T14:37:09.794Z,19.73
2024-05-09T14:39:55.131Z,19.73
2024-05-09T14:42:41.410Z,19.93
2024-05-09T14:45:26.695Z,19.71
2024-05-09T14:48:15.586Z,19.59
2024-05-09T14:51:01.031Z,19.22
2024-05-09T14:53:46.627Z,19.02
2024-05-09T14:56:31.961Z,18.86
2024-05-09T14:59:17.792Z,19.04
2024-05-09T15:02:03.647Z,18.99
2024-05-09T15:04:49.236Z,19.03
2024-05-09T15:07:34.701Z,19.02
2024-05-09T15:10:27.048Z,18.98
2024-05-09T15:13:20.790Z,19.07
2024-05-09T15:16:06.762Z,18.75
2024-05-09T15:18:52.295Z,19.07
2024-05-09T15:21:37.552Z,18.98
2024-05-09T15:24:23.151Z,18.95
2024-05-09T15:27:08.771Z,18.92
2024-05-09T15:29:54.269Z,18.88
2024-05-09T15:32:40.172Z,18.72
2024-05-09T15:35:25.337Z,18.70
2024-05-09T15:38:11.042Z,18.65
2024-05-09T15:40:56.932Z,18.44
2024-05-09T15:43:42.353Z,18.55
2024-05-09T15:46:28.220Z,18.67
2024-05-09T15:49:13.721Z,18.74
2024-05-09T15:51:59.154Z,18.68
2024-05-09T15:54:44.898Z,18.68
2024-05-09T15:57:30.322Z,18.75
2024-05-09T16:00:24.814Z,18.69
2024-05-09T16:03:21.257Z,18.58
2024-05-09T16:06:06.776Z,18.68
2024-05-09T16:08:52.127Z,18.82
2024-05-09T16:11:37.920Z,18.57
2024-05-09T16:14:23.560Z,18.33
2024-05-09T16:17:09.236Z,18.05
2024-05-09T16:19:54.896Z,18.32
2024-05-09T16:22:40.285Z,18.16
2024-05-09T16:25:25.421Z,18.18
2024-05-09T16:28:12.164Z,18.18
2024-05-09T16:30:58.264Z,18.16
2024-05-09T16:33:43.712Z,18.00
2024-05-09T16:36:29.310Z,17.93
2024-05-09T16:39:15.005Z,17.65
2024-05-09T16:42:00.042Z,17.66
2024-05-09T16:44:45.710Z,17.53
2024-05-09T16:47:31.507Z,17.43
2024-05-09T16:50:25.692Z,17.29
2024-05-09T16:53:14.352Z,17.10
2024-05-09T16:56:02.126Z,17.24
2024-05-09T16:58:47.473Z,17.24
2024-05-09T17:01:33.305Z,17.10
2024-05-09T17:04:18.861Z,17.20
2024-05-09T17:07:05.350Z,16.94
2024-05-09T17:09:50.759Z,16.84
2024-05-09T17:12:36.163Z,16.97
2024-05-09T17:15:21.627Z,16.85
2024-05-09T17:18:07.847Z,16.84
2024-05-09T17:20:53.325Z,16.73
2024-05-09T17:23:39.505Z,16.69
2024-05-09T17:26:25.623Z,16.73
2024-05-09T17:29:12.466Z,16.59
2024-05-09T17:31:58.135Z,16.55
2024-05-09T17:34:43.792Z,16.46
2024-05-09T17:37:31.182Z,16.41
2024-05-09T17:40:17.390Z,16.40
2024-05-09T17:43:08.940Z,16.38
2024-05-09T17:45:55.979Z,16.46
2024-05-09T17:48:42.220Z,16.37
2024-05-09T17:51:27.581Z,16.24
2024-05-09T17:54:13.282Z,16.23
2024-05-09T17:56:58.628Z,16.20
2024-05-09T17:59:44.043Z,16.07
2024-05-09T18:02:29.568Z,16.07
2024-05-09T18:05:15.146Z,15.97
2024-05-09T18:08:00.731Z,15.99
2024-05-09T18:10:46.582Z,15.89
2024-05-09T18:13:32.540Z,15.84
2024-05-09T18:16:18.328Z,15.75
2024-05-09T18:19:04.132Z,15.62
2024-05-09T18:21:49.767Z,15.61
2024-05-09T18:24:35.413Z,15.50
2024-05-09T18:27:21.862Z,15.41
2024-05-09T18:30:21.250Z,15.41
2024-05-09T18:33:13.975Z,15.31
2024-05-09T18:35:59.491Z,15.41
2024-05-09T18:38:45.065Z,15.32
2024-05-09T18:41:30.574Z,15.28
2024-05-09T18:44:16.177Z,15.23
2024-05-09T18:47:01.662Z,15.18
2024-05-09T18:49:47.420Z,15.06
2024-05-09T18:52:32.948Z,14.99
2024-05-09T18:55:18.837Z,14.96
2024-05-09T18:58:05.045Z,14.94
2024-05-09T19:00:53.276Z,14.76
2024-05-09T19:03:40.472Z,14.86
2024-05-09T19:06:26.195Z,14.75
2024-05-09T19:09:11.944Z,14.77
2024-05-09T19:11:57.564Z,14.74
2024-05-09T19:14:43.603Z,14.73
2024-05-09T19:17:29.583Z,14.73
2024-05-09T19:20:24.885Z,14.71
2024-05-09T19:23:14.169Z,14.71
2024-05-09T19:25:59.794Z,14.71
2024-05-09T19:28:45.182Z,14.69
2024-05-09T19:31:31.219Z,14.63
2024-05-09T19:34:16.846Z,14.54
2024-05-09T19:37:02.585Z,14.50
2024-05-09T19:39:47.950Z,14.47
2024-05-09T19:42:33.470Z,14.47
2024-05-09T19:45:19.182Z,14.46
2024-05-09T19:48:06.297Z,14.44
2024-05-09T19:50:53.254Z,14.38
2024-05-09T19:53:39.232Z,14.37
2024-05-09T19:56:24.961Z,14.33
2024-05-09T19:59:11.991Z,14.31
2024-05-09T20:01:57.808Z,14.30
2024-05-09T20:04:45.912Z,14.26
2024-05-09T20:07:33.157Z,14.24
2024-05-09T20:10:24.133Z,14.22
2024-05-09T20:13:15.045Z,14.19
2024-05-09T20:16:01.492Z,14.16
2024-05-09T20:18:47.510Z,14.16
2024-05-09T20:21:33.271Z,14.15
2024-05-09T20:24:18.753Z,14.13
2024-05-09T20:27:04.722Z,14.10
2024-05-09T20:29:50.503Z,14.06
2024-05-09T20:32:36.409Z,14.06
2024-05-09T20:35:21.874Z,14.04
2024-05-09T20:38:07.579Z,14.02
2024-05-09T20:40:53.110Z,13.96
2024-05-09T20:43:38.807Z,13.93
2024-05-09T20:46:23.875Z,13.89
2024-05-09T20:49:09.594Z,13.87
2024-05-09T20:51:55.242Z,13.84
2024-05-09T20:54:41.343Z,13.83
2024-05-09T20:57:27.063Z,13.81
2024-05-09T21:00:18.597Z,13.80
2024-05-09T21:03:07.636Z,13.80
2024-05-09T21:05:53.270Z,13.78
2024-05-09T21:08:38.855Z,13.79
2024-05-09T21:11:25.229Z,13.70
2024-05-09T21:14:10.965Z,13.69
2024-05-09T21:16:56.852Z,13.66
2024-05-09T21:19:42.369Z,13.60
2024-05-09T21:22:27.781Z,13.57
2024-05-09T21:25:13.418Z,13.42
2024-05-09T21:27:59.061Z,13.40
2024-05-09T21:30:44.468Z,13.33
2024-05-09T21:33:29.919Z,13.41
2024-05-09T21:36:15.685Z,13.47
2024-05-09T21:39:01.214Z,13.37
2024-05-09T21:41:46.866Z,13.41
2024-05-09T21:44:32.526Z,13.47
2024-05-09T21:47:18.002Z,13.46
2024-05-09T21:50:06.112Z,13.47
2024-05-09T21:52:51.319Z,13.30
2024-05-09T21:55:37.101Z,13.27
2024-05-09T21:58:23.647Z,13.21
2024-05-09T22:01:09.283Z,13.27
2024-05-09T22:03:54.756Z,13.24
2024-05-09T22:06:40.558Z,13.21
2024-05-09T22:09:26.665Z,13.21
2024-05-09T22:12:12.510Z,13.23
2024-05-09T22:14:57.991Z,13.26
2024-05-09T22:17:43.618Z,13.28
2024-05-09T22:20:36.147Z,13.29
2024-05-09T22:23:24.372Z,13.27
2024-05-09T22:26:09.560Z,13.23
2024-05-09T22:28:55.338Z,13.22
2024-05-09T22:31:40.699Z,13.22
2024-05-09T22:34:26.584Z,13.20
2024-05-09T22:37:12.217Z,13.18
2024-05-09T22:39:57.821Z,13.19
2024-05-09T22:42:43.644Z,13.16
2024-05-09T22:45:29.173Z,13.17
2024-05-09T22:48:14.872Z,13.15
2024-05-09T22:51:00.811Z,13.11
2024-05-09T22:53:46.042Z,13.13
2024-05-09T22:56:31.730Z,13.11
2024-05-09T22:59:17.494Z,13.06
2024-05-09T23:02:03.446Z,13.03
2024-05-09T23:04:49.247Z,13.05
2024-05-09T23:07:34.671Z,13.05
2024-05-09T23:10:27.494Z,13.04
2024-05-09T23:13:17.607Z,13.02
2024-05-09T23:16:03.783Z,12.96
2024-05-09T23:18:49.764Z,12.97
2024-05-09T23:21:39.121Z,12.94
2024-05-09T23:24:24.671Z,12.93
2024-05-09T23:27:10.343Z,12.93
2024-05-09T23:29:55.989Z,12.94
2024-05-09T23:32:41.771Z,12.90
2024-05-09T23:35:27.240Z,12.87
2024-05-09T23:38:13.007Z,12.85
2024-05-09T23:40:58.755Z,12.83
2024-05-09T23:43:44.163Z,12.83
2024-05-09T23:46:29.762Z,12.84
2024-05-09T23:49:15.681Z,12.81
2024-05-09T23:52:01.037Z,12.79
2024-05-09T23:54:46.742Z,12.83
2024-05-09T23:57:32.590Z,12.77
